sensor_id;sensor_type;location;lat;lon;timestamp;pressure;altitude;pressure_sealevel;temperature;humidity
43741;BME280;29352;48.708;9.290;2023-12-20T00:01:37;97841.88;;;1.82;68.15
43741;BME280;29352;48.708;9.290;2023-12-20T00:04:04;97843.50;;;1.83;68.28
43741;BME280;29352;48.708;9.290;2023-12-20T00:06:30;97825.53;;;1.54;68.49
43741;BME280;29352;48.708;9.290;2023-12-20T00:08:56;97809.34;;;2.00;67.36
43741;BME280;29352;48.708;9.290;2023-12-20T00:11:23;97814.88;;;1.72;68.32
43741;BME280;29352;48.708;9.290;2023-12-20T00:13:49;97817.19;;;1.83;67.44
43741;BME280;29352;48.708;9.290;2023-12-20T00:16:15;97824.63;;;1.88;67.63
43741;BME280;29352;48.708;9.290;2023-12-20T00:18:40;97815.59;;;2.15;67.05
43741;BME280;29352;48.708;9.290;2023-12-20T00:21:06;97819.31;;;1.72;68.19
43741;BME280;29352;48.708;9.290;2023-12-20T00:23:32;97816.50;;;1.73;67.64
43741;BME280;29352;48.708;9.290;2023-12-20T00:25:57;97812.94;;;1.90;67.47
43741;BME280;29352;48.708;9.290;2023-12-20T00:28:23;97800.72;;;1.73;67.90
43741;BME280;29352;48.708;9.290;2023-12-20T00:30:49;97796.66;;;1.87;67.20
43741;BME280;29352;48.708;9.290;2023-12-20T00:33:14;97790.75;;;1.93;66.91
43741;BME280;29352;48.708;9.290;2023-12-20T00:35:41;97787.13;;;1.86;66.92
43741;BME280;29352;48.708;9.290;2023-12-20T00:38:07;97783.69;;;1.94;66.93
43741;BME280;29352;48.708;9.290;2023-12-20T00:40:33;97790.41;;;1.88;67.28
43741;BME280;29352;48.708;9.290;2023-12-20T00:42:59;97788.13;;;2.09;67.07
43741;BME280;29352;48.708;9.290;2023-12-20T00:45:25;97791.06;;;1.98;67.28
43741;BME280;29352;48.708;9.290;2023-12-20T00:47:51;97794.19;;;2.02;67.69
43741;BME280;29352;48.708;9.290;2023-12-20T00:50:16;97795.69;;;1.96;67.89
43741;BME280;29352;48.708;9.290;2023-12-20T00:52:42;97791.41;;;2.11;67.93
43741;BME280;29352;48.708;9.290;2023-12-20T00:55:07;97785.31;;;1.95;68.26
43741;BME280;29352;48.708;9.290;2023-12-20T00:57:33;97785.50;;;2.09;67.86
43741;BME280;29352;48.708;9.290;2023-12-20T00:59:59;97778.91;;;2.22;68.35
43741;BME280;29352;48.708;9.290;2023-12-20T01:02:25;97781.97;;;2.66;67.38
43741;BME280;29352;48.708;9.290;2023-12-20T01:04:50;97774.66;;;2.93;66.97
43741;BME280;29352;48.708;9.290;2023-12-20T01:07:16;97779.59;;;2.88;67.03
43741;BME280;29352;48.708;9.290;2023-12-20T01:09:42;97787.03;;;2.68;68.18
43741;BME280;29352;48.708;9.290;2023-12-20T01:12:07;97779.88;;;2.29;68.68
43741;BME280;29352;48.708;9.290;2023-12-20T01:14:32;97788.59;;;2.54;68.79
43741;BME280;29352;48.708;9.290;2023-12-20T01:16:58;97784.13;;;2.54;69.04
43741;BME280;29352;48.708;9.290;2023-12-20T01:19:24;97787.94;;;2.44;68.74
43741;BME280;29352;48.708;9.290;2023-12-20T01:21:50;97790.03;;;2.65;69.51
43741;BME280;29352;48.708;9.290;2023-12-20T01:24:16;97803.41;;;2.38;69.56
43741;BME280;29352;48.708;9.290;2023-12-20T01:26:41;97796.84;;;2.26;70.53
43741;BME280;29352;48.708;9.290;2023-12-20T01:29:07;97795.03;;;2.19;70.66
43741;BME280;29352;48.708;9.290;2023-12-20T01:31:32;97797.50;;;2.28;70.42
43741;BME280;29352;48.708;9.290;2023-12-20T01:33:58;97800.28;;;2.19;70.79
43741;BME280;29352;48.708;9.290;2023-12-20T01:36:24;97803.75;;;2.03;71.16
43741;BME280;29352;48.708;9.290;2023-12-20T01:38:49;97804.41;;;2.13;71.73
43741;BME280;29352;48.708;9.290;2023-12-20T01:41:16;97815.59;;;1.90;72.25
43741;BME280;29352;48.708;9.290;2023-12-20T01:43:42;97808.53;;;2.24;71.95
43741;BME280;29352;48.708;9.290;2023-12-20T01:46:07;97802.59;;;1.89;72.65
43741;BME280;29352;48.708;9.290;2023-12-20T01:48:33;97807.69;;;1.90;72.87
43741;BME280;29352;48.708;9.290;2023-12-20T01:51:02;97805.81;;;1.66;73.36
43741;BME280;29352;48.708;9.290;2023-12-20T01:53:28;97813.44;;;1.86;72.91
43741;BME280;29352;48.708;9.290;2023-12-20T01:55:57;97808.03;;;1.96;73.18
43741;BME280;29352;48.708;9.290;2023-12-20T01:58:25;97812.00;;;2.16;72.68
43741;BME280;29352;48.708;9.290;2023-12-20T02:00:51;97800.78;;;2.30;72.23
43741;BME280;29352;48.708;9.290;2023-12-20T02:03:18;97803.75;;;2.44;72.29
43741;BME280;29352;48.708;9.290;2023-12-20T02:05:45;97797.19;;;2.07;72.97
43741;BME280;29352;48.708;9.290;2023-12-20T02:08:13;97795.19;;;2.01;72.82
43741;BME280;29352;48.708;9.290;2023-12-20T02:10:39;97804.09;;;1.92;73.72
43741;BME280;29352;48.708;9.290;2023-12-20T02:13:06;97803.25;;;1.91;73.72
43741;BME280;29352;48.708;9.290;2023-12-20T02:15:33;97793.88;;;2.13;73.45
43741;BME280;29352;48.708;9.290;2023-12-20T02:17:59;97787.13;;;2.27;72.67
43741;BME280;29352;48.708;9.290;2023-12-20T02:20:24;97785.66;;;2.24;72.55
43741;BME280;29352;48.708;9.290;2023-12-20T02:22:50;97797.31;;;1.97;73.31
43741;BME280;29352;48.708;9.290;2023-12-20T02:25:15;97794.88;;;2.04;73.40
43741;BME280;29352;48.708;9.290;2023-12-20T02:27:41;97791.44;;;1.95;73.27
43741;BME280;29352;48.708;9.290;2023-12-20T02:30:09;97785.31;;;2.11;73.31
43741;BME280;29352;48.708;9.290;2023-12-20T02:32:35;97789.25;;;1.90;73.78
43741;BME280;29352;48.708;9.290;2023-12-20T02:35:00;97791.59;;;2.26;72.44
43741;BME280;29352;48.708;9.290;2023-12-20T02:37:26;97791.75;;;2.17;73.49
43741;BME280;29352;48.708;9.290;2023-12-20T02:39:52;97790.56;;;2.35;72.47
43741;BME280;29352;48.708;9.290;2023-12-20T02:42:19;97791.50;;;2.67;71.78
43741;BME280;29352;48.708;9.290;2023-12-20T02:44:46;97796.34;;;2.06;72.95
43741;BME280;29352;48.708;9.290;2023-12-20T02:47:11;97797.16;;;2.40;72.08
43741;BME280;29352;48.708;9.290;2023-12-20T02:49:37;97790.03;;;2.65;71.51
43741;BME280;29352;48.708;9.290;2023-12-20T02:52:02;97797.13;;;2.56;71.84
43741;BME280;29352;48.708;9.290;2023-12-20T02:54:29;97802.41;;;2.56;71.49
43741;BME280;29352;48.708;9.290;2023-12-20T02:56:54;97799.38;;;2.83;70.85
43741;BME280;29352;48.708;9.290;2023-12-20T02:59:20;97803.06;;;2.50;71.75
43741;BME280;29352;48.708;9.290;2023-12-20T03:01:46;97801.59;;;2.39;71.75
43741;BME280;29352;48.708;9.290;2023-12-20T03:04:12;97811.31;;;2.38;71.71
43741;BME280;29352;48.708;9.290;2023-12-20T03:06:38;97799.41;;;2.75;71.22
43741;BME280;29352;48.708;9.290;2023-12-20T03:09:05;97802.44;;;2.48;71.74
43741;BME280;29352;48.708;9.290;2023-12-20T03:11:30;97807.03;;;2.46;72.12
43741;BME280;29352;48.708;9.290;2023-12-20T03:13:57;97804.72;;;2.18;72.38
43741;BME280;29352;48.708;9.290;2023-12-20T03:16:23;97808.00;;;2.61;71.15
43741;BME280;29352;48.708;9.290;2023-12-20T03:18:49;97812.81;;;2.17;72.70
43741;BME280;29352;48.708;9.290;2023-12-20T03:21:15;97810.66;;;1.96;72.99
43741;BME280;29352;48.708;9.290;2023-12-20T03:23:42;97814.94;;;2.37;71.99
43741;BME280;29352;48.708;9.290;2023-12-20T03:26:09;97819.06;;;2.40;72.08
43741;BME280;29352;48.708;9.290;2023-12-20T03:28:36;97821.69;;;2.48;71.56
43741;BME280;29352;48.708;9.290;2023-12-20T03:31:02;97818.50;;;2.77;70.73
43741;BME280;29352;48.708;9.290;2023-12-20T03:33:29;97819.34;;;2.70;71.12
43741;BME280;29352;48.708;9.290;2023-12-20T03:35:55;97826.78;;;2.42;71.71
43741;BME280;29352;48.708;9.290;2023-12-20T03:38:21;97819.31;;;2.78;71.20
43741;BME280;29352;48.708;9.290;2023-12-20T03:40:49;97824.44;;;2.79;70.56
43741;BME280;29352;48.708;9.290;2023-12-20T03:43:15;97831.03;;;2.67;71.00
43741;BME280;29352;48.708;9.290;2023-12-20T03:45:42;97831.91;;;2.35;71.89
43741;BME280;29352;48.708;9.290;2023-12-20T03:48:08;97829.94;;;2.21;72.17
43741;BME280;29352;48.708;9.290;2023-12-20T03:50:34;97826.31;;;2.30;72.40
43741;BME280;29352;48.708;9.290;2023-12-20T03:53:00;97835.88;;;2.23;72.64
43741;BME280;29352;48.708;9.290;2023-12-20T03:55:27;97837.66;;;2.38;71.96
43741;BME280;29352;48.708;9.290;2023-12-20T03:57:54;97838.28;;;2.57;72.03
43741;BME280;29352;48.708;9.290;2023-12-20T04:00:19;97838.16;;;2.42;71.73
43741;BME280;29352;48.708;9.290;2023-12-20T04:02:46;97842.75;;;2.48;71.68
43741;BME280;29352;48.708;9.290;2023-12-20T04:05:11;97838.16;;;2.42;71.95
43741;BME280;29352;48.708;9.290;2023-12-20T04:07:38;97839.13;;;2.41;72.25
43741;BME280;29352;48.708;9.290;2023-12-20T04:10:04;97847.03;;;2.57;71.33
43741;BME280;29352;48.708;9.290;2023-12-20T04:12:31;97854.13;;;2.49;71.84
43741;BME280;29352;48.708;9.290;2023-12-20T04:14:57;97852.44;;;2.64;71.29
43741;BME280;29352;48.708;9.290;2023-12-20T04:17:23;97850.44;;;2.82;70.86
43741;BME280;29352;48.708;9.290;2023-12-20T04:19:49;97843.97;;;3.01;69.99
43741;BME280;29352;48.708;9.290;2023-12-20T04:22:15;97838.66;;;2.54;71.70
43741;BME280;29352;48.708;9.290;2023-12-20T04:24:42;97841.91;;;2.64;71.49
43741;BME280;29352;48.708;9.290;2023-12-20T04:27:08;97845.38;;;2.56;71.59
43741;BME280;29352;48.708;9.290;2023-12-20T04:29:35;97852.47;;;2.56;71.81
43741;BME280;29352;48.708;9.290;2023-12-20T04:32:00;97859.22;;;2.58;71.67
43741;BME280;29352;48.708;9.290;2023-12-20T04:34:26;97865.97;;;2.61;71.66
43741;BME280;29352;48.708;9.290;2023-12-20T04:36:52;97871.09;;;2.54;71.57
43741;BME280;29352;48.708;9.290;2023-12-20T04:39:18;97866.97;;;2.52;71.65
43741;BME280;29352;48.708;9.290;2023-12-20T04:41:44;97858.88;;;2.53;71.81
43741;BME280;29352;48.708;9.290;2023-12-20T04:44:10;97865.31;;;2.51;71.67
43741;BME280;29352;48.708;9.290;2023-12-20T04:46:35;97860.53;;;2.63;71.13
43741;BME280;29352;48.708;9.290;2023-12-20T04:49:00;97866.13;;;2.43;71.67
43741;BME280;29352;48.708;9.290;2023-12-20T04:51:26;97872.22;;;2.68;70.97
43741;BME280;29352;48.708;9.290;2023-12-20T04:53:52;97882.94;;;2.42;71.16
43741;BME280;29352;48.708;9.290;2023-12-20T04:56:17;97892.81;;;2.40;71.91
43741;BME280;29352;48.708;9.290;2023-12-20T04:58:43;97885.25;;;2.61;71.23
43741;BME280;29352;48.708;9.290;2023-12-20T05:01:09;97881.63;;;2.38;71.40
43741;BME280;29352;48.708;9.290;2023-12-20T05:03:35;97878.16;;;2.21;72.48
43741;BME280;29352;48.708;9.290;2023-12-20T05:06:01;97872.72;;;2.23;71.86
43741;BME280;29352;48.708;9.290;2023-12-20T05:08:27;97890.81;;;2.26;71.61
43741;BME280;29352;48.708;9.290;2023-12-20T05:10:54;97892.81;;;2.40;71.75
43741;BME280;29352;48.708;9.290;2023-12-20T05:13:21;97894.44;;;2.25;71.11
43741;BME280;29352;48.708;9.290;2023-12-20T05:15:47;97899.00;;;1.98;71.76
43741;BME280;29352;48.708;9.290;2023-12-20T05:18:13;97900.47;;;1.93;71.70
43741;BME280;29352;48.708;9.290;2023-12-20T05:20:39;97895.56;;;2.06;71.41
43741;BME280;29352;48.708;9.290;2023-12-20T05:23:05;97893.31;;;2.44;71.08
43741;BME280;29352;48.708;9.290;2023-12-20T05:25:32;97909.06;;;2.11;72.00
43741;BME280;29352;48.708;9.290;2023-12-20T05:27:59;97918.47;;;2.22;71.45
43741;BME280;29352;48.708;9.290;2023-12-20T05:30:25;97918.28;;;2.07;71.73
43741;BME280;29352;48.708;9.290;2023-12-20T05:32:50;97921.94;;;2.38;71.10
43741;BME280;29352;48.708;9.290;2023-12-20T05:35:16;97912.56;;;2.20;71.61
43741;BME280;29352;48.708;9.290;2023-12-20T05:37:43;97916.31;;;2.25;71.32
43741;BME280;29352;48.708;9.290;2023-12-20T05:40:09;97923.22;;;2.18;71.66
43741;BME280;29352;48.708;9.290;2023-12-20T05:42:36;97922.91;;;2.13;72.29
43741;BME280;29352;48.708;9.290;2023-12-20T05:45:03;97934.53;;;1.94;72.02
43741;BME280;29352;48.708;9.290;2023-12-20T05:47:29;97933.69;;;1.85;72.49
43741;BME280;29352;48.708;9.290;2023-12-20T05:49:55;97926.09;;;1.82;72.64
43741;BME280;29352;48.708;9.290;2023-12-20T05:52:21;97932.16;;;1.83;72.31
43741;BME280;29352;48.708;9.290;2023-12-20T05:54:47;97942.28;;;2.04;72.11
43741;BME280;29352;48.708;9.290;2023-12-20T05:57:13;97945.53;;;1.89;72.42
43741;BME280;29352;48.708;9.290;2023-12-20T05:59:38;97943.94;;;1.71;72.29
43741;BME280;29352;48.708;9.290;2023-12-20T06:02:04;97956.44;;;2.03;72.20
43741;BME280;29352;48.708;9.290;2023-12-20T06:04:30;97956.88;;;1.56;72.99
43741;BME280;29352;48.708;9.290;2023-12-20T06:06:55;97958.16;;;1.78;72.75
43741;BME280;29352;48.708;9.290;2023-12-20T06:09:21;97958.91;;;1.70;73.20
43741;BME280;29352;48.708;9.290;2023-12-20T06:11:47;97965.16;;;1.61;73.17
43741;BME280;29352;48.708;9.290;2023-12-20T06:14:12;97972.63;;;1.82;72.85
43741;BME280;29352;48.708;9.290;2023-12-20T06:16:38;97963.78;;;1.57;73.09
43741;BME280;29352;48.708;9.290;2023-12-20T06:19:03;97974.38;;;1.73;73.07
43741;BME280;29352;48.708;9.290;2023-12-20T06:21:29;97973.56;;;1.73;73.32
43741;BME280;29352;48.708;9.290;2023-12-20T06:23:54;97988.38;;;1.74;72.92
43741;BME280;29352;48.708;9.290;2023-12-20T06:26:20;97981.75;;;1.96;72.63
43741;BME280;29352;48.708;9.290;2023-12-20T06:28:46;97983.91;;;2.00;72.31
43741;BME280;29352;48.708;9.290;2023-12-20T06:31:11;97975.94;;;1.84;72.96
43741;BME280;29352;48.708;9.290;2023-12-20T06:33:38;97979.16;;;2.12;72.16
43741;BME280;29352;48.708;9.290;2023-12-20T06:36:05;97979.75;;;1.89;72.98
43741;BME280;29352;48.708;9.290;2023-12-20T06:38:31;97972.19;;;1.95;72.97
43741;BME280;29352;48.708;9.290;2023-12-20T06:40:57;97960.81;;;1.52;73.37
43741;BME280;29352;48.708;9.290;2023-12-20T06:43:23;97978.72;;;2.25;71.66
43741;BME280;29352;48.708;9.290;2023-12-20T06:45:49;97981.09;;;2.02;72.48
43741;BME280;29352;48.708;9.290;2023-12-20T06:48:16;97989.03;;;1.68;73.10
43741;BME280;29352;48.708;9.290;2023-12-20T06:50:41;97993.00;;;1.80;73.31
43741;BME280;29352;48.708;9.290;2023-12-20T06:53:07;97991.38;;;1.79;73.18
43741;BME280;29352;48.708;9.290;2023-12-20T06:55:36;97985.44;;;1.77;73.15
43741;BME280;29352;48.708;9.290;2023-12-20T06:58:03;97992.88;;;1.81;72.64
43741;BME280;29352;48.708;9.290;2023-12-20T07:00:30;97990.19;;;1.73;73.15
43741;BME280;29352;48.708;9.290;2023-12-20T07:02:57;98000.00;;;1.63;73.50
43741;BME280;29352;48.708;9.290;2023-12-20T07:05:23;97998.03;;;1.65;73.13
43741;BME280;29352;48.708;9.290;2023-12-20T07:07:49;98004.59;;;1.61;73.10
43741;BME280;29352;48.708;9.290;2023-12-20T07:10:14;98012.69;;;1.68;72.84
43741;BME280;29352;48.708;9.290;2023-12-20T07:12:39;98015.16;;;1.95;72.49
43741;BME280;29352;48.708;9.290;2023-12-20T07:15:05;98016.88;;;1.78;72.62
43741;BME280;29352;48.708;9.290;2023-12-20T07:17:32;98018.31;;;2.07;72.00
43741;BME280;29352;48.708;9.290;2023-12-20T07:19:59;98024.66;;;2.30;71.40
43741;BME280;29352;48.708;9.290;2023-12-20T07:22:28;98027.75;;;2.26;71.41
43741;BME280;29352;48.708;9.290;2023-12-20T07:24:54;98033.69;;;2.28;70.82
43741;BME280;29352;48.708;9.290;2023-12-20T07:27:20;98036.19;;;2.37;70.57
43741;BME280;29352;48.708;9.290;2023-12-20T07:29:45;98036.38;;;2.02;72.02
43741;BME280;29352;48.708;9.290;2023-12-20T07:32:10;98044.06;;;2.29;71.15
43741;BME280;29352;48.708;9.290;2023-12-20T07:34:36;98042.28;;;2.30;71.34
43741;BME280;29352;48.708;9.290;2023-12-20T07:37:02;98043.53;;;2.09;71.60
43741;BME280;29352;48.708;9.290;2023-12-20T07:39:28;98046.38;;;2.24;71.65
43741;BME280;29352;48.708;9.290;2023-12-20T07:41:54;98053.59;;;2.22;71.91
43741;BME280;29352;48.708;9.290;2023-12-20T07:44:21;98061.47;;;2.14;71.31
43741;BME280;29352;48.708;9.290;2023-12-20T07:46:48;98056.72;;;2.26;71.75
43741;BME280;29352;48.708;9.290;2023-12-20T07:49:14;98063.31;;;1.87;72.59
43741;BME280;29352;48.708;9.290;2023-12-20T07:51:40;98068.63;;;1.43;73.32
43741;BME280;29352;48.708;9.290;2023-12-20T07:54:06;98067.97;;;1.50;73.49
43741;BME280;29352;48.708;9.290;2023-12-20T07:56:33;98071.53;;;1.66;72.70
43741;BME280;29352;48.708;9.290;2023-12-20T07:58:58;98072.19;;;1.16;74.51
43741;BME280;29352;48.708;9.290;2023-12-20T08:01:24;98076.00;;;1.40;73.90
43741;BME280;29352;48.708;9.290;2023-12-20T08:03:50;98065.19;;;1.25;73.10
43741;BME280;29352;48.708;9.290;2023-12-20T08:06:15;98076.78;;;0.79;73.95
43741;BME280;29352;48.708;9.290;2023-12-20T08:08:42;98081.59;;;1.19;72.62
43741;BME280;29352;48.708;9.290;2023-12-20T08:11:08;98078.72;;;1.56;71.90
43741;BME280;29352;48.708;9.290;2023-12-20T08:13:33;98075.09;;;1.31;71.52
43741;BME280;29352;48.708;9.290;2023-12-20T08:15:59;98072.84;;;1.36;71.89
43741;BME280;29352;48.708;9.290;2023-12-20T08:18:24;98072.50;;;1.39;71.65
43741;BME280;29352;48.708;9.290;2023-12-20T08:20:49;98088.56;;;1.10;72.77
43741;BME280;29352;48.708;9.290;2023-12-20T08:23:17;98093.19;;;1.34;72.59
43741;BME280;29352;48.708;9.290;2023-12-20T08:25:43;98093.88;;;1.36;72.44
43741;BME280;29352;48.708;9.290;2023-12-20T08:28:09;98098.13;;;1.55;71.67
43741;BME280;29352;48.708;9.290;2023-12-20T08:30:35;98099.00;;;1.64;70.72
43741;BME280;29352;48.708;9.290;2023-12-20T08:33:00;98099.66;;;1.66;71.17
43741;BME280;29352;48.708;9.290;2023-12-20T08:35:26;98094.38;;;1.58;70.94
43741;BME280;29352;48.708;9.290;2023-12-20T08:37:51;98096.31;;;1.82;70.43
43741;BME280;29352;48.708;9.290;2023-12-20T08:40:17;98099.66;;;2.18;70.27
43741;BME280;29352;48.708;9.290;2023-12-20T08:42:43;98110.38;;;2.17;69.44
43741;BME280;29352;48.708;9.290;2023-12-20T08:45:09;98110.19;;;2.18;69.83
43741;BME280;29352;48.708;9.290;2023-12-20T08:47:35;98118.59;;;1.70;71.18
43741;BME280;29352;48.708;9.290;2023-12-20T08:50:00;98108.09;;;1.08;72.38
43741;BME280;29352;48.708;9.290;2023-12-20T08:52:26;98116.78;;;1.70;71.37
43741;BME280;29352;48.708;9.290;2023-12-20T08:54:53;98118.84;;;1.58;71.01
43741;BME280;29352;48.708;9.290;2023-12-20T08:57:22;98129.72;;;1.19;72.43
43741;BME280;29352;48.708;9.290;2023-12-20T08:59:50;98125.53;;;1.27;72.11
43741;BME280;29352;48.708;9.290;2023-12-20T09:02:16;98125.06;;;1.13;72.65
43741;BME280;29352;48.708;9.290;2023-12-20T09:04:42;98123.13;;;1.33;72.16
43741;BME280;29352;48.708;9.290;2023-12-20T09:07:22;98121.88;;;1.46;70.93
43741;BME280;29352;48.708;9.290;2023-12-20T09:09:50;98117.34;;;1.56;71.66
43741;BME280;29352;48.708;9.290;2023-12-20T09:12:17;98114.53;;;1.75;70.19
43741;BME280;29352;48.708;9.290;2023-12-20T09:14:46;98122.94;;;0.63;71.79
43741;BME280;29352;48.708;9.290;2023-12-20T09:17:13;98112.66;;;1.41;71.19
43741;BME280;29352;48.708;9.290;2023-12-20T09:19:38;98102.78;;;1.61;70.16
43741;BME280;29352;48.708;9.290;2023-12-20T09:22:05;98101.81;;;1.88;69.43
43741;BME280;29352;48.708;9.290;2023-12-20T09:24:31;98111.53;;;1.70;70.01
43741;BME280;29352;48.708;9.290;2023-12-20T09:26:56;98110.41;;;1.47;69.23
43741;BME280;29352;48.708;9.290;2023-12-20T09:29:23;98114.69;;;1.30;69.57
43741;BME280;29352;48.708;9.290;2023-12-20T09:31:50;98122.19;;;1.86;68.46
43741;BME280;29352;48.708;9.290;2023-12-20T09:34:16;98120.53;;;2.11;66.96
43741;BME280;29352;48.708;9.290;2023-12-20T09:36:42;98119.25;;;2.58;68.08
43741;BME280;29352;48.708;9.290;2023-12-20T09:39:14;98119.97;;;2.76;66.08
43741;BME280;29352;48.708;9.290;2023-12-20T09:41:43;98109.84;;;3.30;67.04
43741;BME280;29352;48.708;9.290;2023-12-20T09:44:16;98118.41;;;3.16;66.39
43741;BME280;29352;48.708;9.290;2023-12-20T09:46:49;98117.44;;;3.25;64.14
43741;BME280;29352;48.708;9.290;2023-12-20T09:49:18;98123.88;;;3.31;64.55
43741;BME280;29352;48.708;9.290;2023-12-20T09:51:46;98126.63;;;3.78;65.43
43741;BME280;29352;48.708;9.290;2023-12-20T09:54:23;98129.47;;;3.61;62.58
43741;BME280;29352;48.708;9.290;2023-12-20T09:56:49;98123.91;;;4.19;65.26
43741;BME280;29352;48.708;9.290;2023-12-20T09:59:16;98121.75;;;4.70;62.11
43741;BME280;29352;48.708;9.290;2023-12-20T10:01:43;98132.25;;;4.87;62.12
43741;BME280;29352;48.708;9.290;2023-12-20T10:04:10;98123.31;;;5.80;60.29
43741;BME280;29352;48.708;9.290;2023-12-20T10:06:42;98118.56;;;5.52;60.31
43741;BME280;29352;48.708;9.290;2023-12-20T10:09:12;98111.91;;;5.94;59.35
43741;BME280;29352;48.708;9.290;2023-12-20T10:11:39;98112.91;;;6.37;58.70
43741;BME280;29352;48.708;9.290;2023-12-20T10:14:06;98101.97;;;6.11;58.80
43741;BME280;29352;48.708;9.290;2023-12-20T10:16:34;98110.66;;;6.71;57.94
43741;BME280;29352;48.708;9.290;2023-12-20T10:19:00;98109.34;;;5.63;58.64
43741;BME280;29352;48.708;9.290;2023-12-20T10:21:29;98110.16;;;5.26;58.41
43741;BME280;29352;48.708;9.290;2023-12-20T10:23:57;98098.66;;;6.24;56.76
43741;BME280;29352;48.708;9.290;2023-12-20T10:26:25;98100.38;;;6.31;56.64
43741;BME280;29352;48.708;9.290;2023-12-20T10:29:00;98092.91;;;5.90;56.34
43741;BME280;29352;48.708;9.290;2023-12-20T10:31:33;98093.22;;;5.35;55.86
43741;BME280;29352;48.708;9.290;2023-12-20T10:34:02;98090.22;;;5.76;54.68
43741;BME280;29352;48.708;9.290;2023-12-20T10:36:32;98075.25;;;5.68;54.89
43741;BME280;29352;48.708;9.290;2023-12-20T10:38:59;98076.97;;;6.50;53.42
43741;BME280;29352;48.708;9.290;2023-12-20T10:41:28;98073.09;;;5.86;53.61
43741;BME280;29352;48.708;9.290;2023-12-20T10:44:03;98077.41;;;5.64;53.65
43741;BME280;29352;48.708;9.290;2023-12-20T10:46:34;98081.41;;;4.77;55.99
43741;BME280;29352;48.708;9.290;2023-12-20T10:49:02;98071.16;;;5.80;55.09
43741;BME280;29352;48.708;9.290;2023-12-20T10:51:31;98074.25;;;6.28;55.00
43741;BME280;29352;48.708;9.290;2023-12-20T10:53:59;98066.59;;;5.51;55.45
43741;BME280;29352;48.708;9.290;2023-12-20T10:56:32;98077.38;;;4.49;57.10
43741;BME280;29352;48.708;9.290;2023-12-20T10:59:02;98072.44;;;5.61;56.22
43741;BME280;29352;48.708;9.290;2023-12-20T11:01:31;98073.34;;;5.39;56.21
43741;BME280;29352;48.708;9.290;2023-12-20T11:03:58;98071.91;;;6.04;54.91
43741;BME280;29352;48.708;9.290;2023-12-20T11:07:07;98079.41;;;5.62;55.75
43741;BME280;29352;48.708;9.290;2023-12-20T11:09:38;98076.94;;;5.61;54.96
43741;BME280;29352;48.708;9.290;2023-12-20T11:12:15;98064.47;;;5.32;55.78
43741;BME280;29352;48.708;9.290;2023-12-20T11:14:54;98067.69;;;5.80;54.41
43741;BME280;29352;48.708;9.290;2023-12-20T11:17:22;98062.59;;;5.17;54.22
43741;BME280;29352;48.708;9.290;2023-12-20T11:22:17;98069.97;;;4.45;54.98
43741;BME280;29352;48.708;9.290;2023-12-20T11:24:44;98063.66;;;4.54;54.91
43741;BME280;29352;48.708;9.290;2023-12-20T11:27:12;98067.53;;;4.35;55.38
43741;BME280;29352;48.708;9.290;2023-12-20T11:29:41;98064.28;;;3.77;55.89
43741;BME280;29352;48.708;9.290;2023-12-20T11:34:51;98070.66;;;3.99;56.40
43741;BME280;29352;48.708;9.290;2023-12-20T11:37:20;98073.03;;;4.25;55.70
43741;BME280;29352;48.708;9.290;2023-12-20T11:39:54;98071.88;;;3.72;56.08
43741;BME280;29352;48.708;9.290;2023-12-20T11:42:21;98079.50;;;3.26;56.53
43741;BME280;29352;48.708;9.290;2023-12-20T11:44:47;98071.59;;;3.51;55.76
43741;BME280;29352;48.708;9.290;2023-12-20T11:47:14;98069.13;;;3.41;55.70
43741;BME280;29352;48.708;9.290;2023-12-20T11:49:41;98069.78;;;3.35;56.25
43741;BME280;29352;48.708;9.290;2023-12-20T11:52:07;98061.53;;;3.30;56.39
43741;BME280;29352;48.708;9.290;2023-12-20T11:54:32;98071.75;;;3.41;56.65
43741;BME280;29352;48.708;9.290;2023-12-20T11:56:58;98061.34;;;3.40;57.06
43741;BME280;29352;48.708;9.290;2023-12-20T11:59:24;98061.97;;;3.74;56.45
43741;BME280;29352;48.708;9.290;2023-12-20T12:01:50;98071.59;;;3.43;56.42
43741;BME280;29352;48.708;9.290;2023-12-20T12:04:16;98065.97;;;3.29;56.50
43741;BME280;29352;48.708;9.290;2023-12-20T12:06:43;98058.69;;;2.91;56.90
43741;BME280;29352;48.708;9.290;2023-12-20T12:09:10;98065.63;;;3.08;56.43
43741;BME280;29352;48.708;9.290;2023-12-20T12:11:35;98068.22;;;2.67;56.58
43741;BME280;29352;48.708;9.290;2023-12-20T12:14:01;98068.31;;;3.41;55.34
43741;BME280;29352;48.708;9.290;2023-12-20T12:16:27;98062.75;;;2.60;56.13
43741;BME280;29352;48.708;9.290;2023-12-20T12:18:57;98072.78;;;2.57;56.63
43741;BME280;29352;48.708;9.290;2023-12-20T12:21:23;98066.25;;;2.61;57.03
43741;BME280;29352;48.708;9.290;2023-12-20T12:23:49;98070.06;;;2.91;56.84
43741;BME280;29352;48.708;9.290;2023-12-20T12:26:15;98059.88;;;2.29;57.07
43741;BME280;29352;48.708;9.290;2023-12-20T12:28:42;98069.13;;;2.42;57.13
43741;BME280;29352;48.708;9.290;2023-12-20T12:31:13;98064.59;;;2.84;56.83
43741;BME280;29352;48.708;9.290;2023-12-20T12:33:43;98054.06;;;2.84;56.45
43741;BME280;29352;48.708;9.290;2023-12-20T12:36:10;98041.84;;;2.67;55.95
43741;BME280;29352;48.708;9.290;2023-12-20T12:38:38;98038.78;;;2.96;56.40
43741;BME280;29352;48.708;9.290;2023-12-20T12:41:05;98027.06;;;3.07;56.09
43741;BME280;29352;48.708;9.290;2023-12-20T12:43:31;98041.22;;;2.81;55.93
43741;BME280;29352;48.708;9.290;2023-12-20T12:45:57;98029.88;;;3.14;56.27
43741;BME280;29352;48.708;9.290;2023-12-20T12:48:22;98042.53;;;3.02;56.12
43741;BME280;29352;48.708;9.290;2023-12-20T12:50:47;98042.53;;;3.02;56.47
43741;BME280;29352;48.708;9.290;2023-12-20T12:53:14;98042.03;;;2.74;56.90
43741;BME280;29352;48.708;9.290;2023-12-20T12:55:40;98025.75;;;2.87;56.16
43741;BME280;29352;48.708;9.290;2023-12-20T12:58:06;98027.03;;;2.99;55.90
43741;BME280;29352;48.708;9.290;2023-12-20T13:00:31;98031.00;;;2.87;56.12
43741;BME280;29352;48.708;9.290;2023-12-20T13:02:57;98026.06;;;2.92;55.71
43741;BME280;29352;48.708;9.290;2023-12-20T13:05:23;98034.28;;;2.80;56.45
43741;BME280;29352;48.708;9.290;2023-12-20T13:07:48;98039.06;;;2.69;56.68
43741;BME280;29352;48.708;9.290;2023-12-20T13:10:14;98036.56;;;2.51;56.60
43741;BME280;29352;48.708;9.290;2023-12-20T13:12:43;98027.84;;;2.58;56.29